createdAt,value
2018-06-17T00:00:35.843Z,65.56
2018-06-17T00:03:04.074Z,66.46
2018-06-17T00:05:32.328Z,67.70
2018-06-17T00:08:00.583Z,68.06
2018-06-17T00:10:28.903Z,69.16
2018-06-17T00:12:57.094Z,68.86
2018-06-17T00:15:25.359Z,69.87
2018-06-17T00:17:53.603Z,69.16
2018-06-17T00:20:21.840Z,69.99
2018-06-17T00:22:50.220Z,70.11
2018-06-17T00:25:18.522Z,70.53
2018-06-17T00:27:46.732Z,69.93
2018-06-17T00:30:14.967Z,69.76
2018-06-17T00:32:43.176Z,70.93
2018-06-17T00:35:11.365Z,71.50
2018-06-17T00:37:39.640Z,71.86
2018-06-17T00:40:07.847Z,73.03
2018-06-17T00:42:36.181Z,74.95
2018-06-17T00:45:04.576Z,75.49
2018-06-17T00:47:32.790Z,74.54
2018-06-17T00:50:01.001Z,75.27
2018-06-17T00:52:29.230Z,75.75
2018-06-17T00:54:57.474Z,76.36
2018-06-17T00:57:37.111Z,78.67
2018-06-17T01:02:57.197Z,77.62
2018-06-17T01:05:25.388Z,76.00
2018-06-17T01:07:53.791Z,76.30
2018-06-17T01:10:22.008Z,77.54
2018-06-17T01:12:50.198Z,77.15
2018-06-17T01:15:18.466Z,76.48
2018-06-17T01:17:46.740Z,76.96
2018-06-17T01:20:15.020Z,77.17
2018-06-17T01:22:43.228Z,77.29
2018-06-17T01:25:11.489Z,78.76
2018-06-17T01:27:39.686Z,78.11
2018-06-17T01:30:07.916Z,77.57
2018-06-17T01:32:36.136Z,77.65
2018-06-17T01:35:04.583Z,77.20
2018-06-17T01:37:32.779Z,77.21
2018-06-17T01:40:00.973Z,77.96
2018-06-17T01:42:29.207Z,76.38
2018-06-17T01:44:57.384Z,76.43
2018-06-17T01:47:25.634Z,78.25
2018-06-17T01:49:53.846Z,77.97
2018-06-17T01:52:22.134Z,78.15
2018-06-17T01:54:50.451Z,78.16
2018-06-17T01:57:18.734Z,76.51
2018-06-17T01:59:46.922Z,75.87
2018-06-17T02:02:15.126Z,77.43
2018-06-17T02:04:48.703Z,78.81
2018-06-17T02:07:22.203Z,78.47
2018-06-17T02:09:55.656Z,79.02
2018-06-17T02:12:23.843Z,79.05
2018-06-17T02:14:57.153Z,78.03
2018-06-17T02:17:26.135Z,78.81
2018-06-17T02:19:55.204Z,77.57
2018-06-17T02:22:23.687Z,78.48
2018-06-17T02:24:51.926Z,77.88
2018-06-17T02:27:20.532Z,78.70
2018-06-17T02:29:48.777Z,79.09
2018-06-17T02:32:16.965Z,79.08
2018-06-17T02:34:45.225Z,79.32
2018-06-17T02:37:13.409Z,78.50
2018-06-17T02:39:42.273Z,78.55
2018-06-17T02:42:10.835Z,79.13
2018-06-17T02:44:39.196Z,78.60
2018-06-17T02:47:12.781Z,78.33
2018-06-17T02:49:45.314Z,77.66
2018-06-17T02:52:18.924Z,78.63
2018-06-17T02:54:48.217Z,79.61
2018-06-17T02:57:17.636Z,79.02
2018-06-17T02:59:46.853Z,79.06
2018-06-17T03:02:15.384Z,78.57
2018-06-17T03:04:43.644Z,79.31
2018-06-17T03:07:11.899Z,78.86
2018-06-17T03:09:40.253Z,78.75
2018-06-17T03:12:08.464Z,78.55
2018-06-17T03:14:36.693Z,79.28
2018-06-17T03:17:04.913Z,78.93
2018-06-17T03:19:33.119Z,78.77
2018-06-17T03:22:01.320Z,79.68
2018-06-17T03:24:35.091Z,79.58
2018-06-17T03:27:08.545Z,80.58
2018-06-17T03:29:42.248Z,79.48
2018-06-17T03:32:15.854Z,79.40
2018-06-17T03:34:44.567Z,79.72
2018-06-17T03:37:12.785Z,80.49
2018-06-17T03:39:41.197Z,79.50
2018-06-17T03:42:09.449Z,80.53
2018-06-17T03:44:37.652Z,79.87
2018-06-17T03:47:05.876Z,80.68
2018-06-17T03:49:34.100Z,79.45
2018-06-17T03:52:02.424Z,80.28
2018-06-17T03:54:30.665Z,80.11
2018-06-17T03:56:59.020Z,80.94
2018-06-17T03:59:27.218Z,80.19
2018-06-17T04:01:55.463Z,79.45
2018-06-17T04:04:23.906Z,81.21
2018-06-17T04:06:52.764Z,80.69
2018-06-17T04:09:21.008Z,80.24
2018-06-17T04:11:49.779Z,79.87
2018-06-17T04:14:18.120Z,79.39
2018-06-17T04:16:46.362Z,80.50
2018-06-17T04:19:14.964Z,80.58
2018-06-17T04:21:43.150Z,80.47
2018-06-17T04:24:11.408Z,81.09
2018-06-17T04:26:39.652Z,80.27
2018-06-17T04:29:07.911Z,79.60
2018-06-17T04:31:36.192Z,80.10
2018-06-17T04:34:04.601Z,79.36
2018-06-17T04:36:32.851Z,79.42
2018-06-17T04:39:01.102Z,79.60
2018-06-17T04:41:29.373Z,80.42
2018-06-17T04:43:57.617Z,79.12
2018-06-17T04:46:26.564Z,80.02
2018-06-17T04:48:54.781Z,80.48
2018-06-17T04:51:23.071Z,80.58
2018-06-17T04:53:51.383Z,79.15
2018-06-17T04:56:19.671Z,79.64
2018-06-17T04:58:47.872Z,80.62
2018-06-17T05:01:16.180Z,79.58
2018-06-17T05:03:44.506Z,80.15
2018-06-17T05:06:12.762Z,79.50
2018-06-17T05:08:41.022Z,79.13
2018-06-17T05:11:09.255Z,79.39
2018-06-17T05:13:37.496Z,79.86
2018-06-17T05:16:05.769Z,78.78
2018-06-17T05:18:34.011Z,80.39
2018-06-17T05:21:02.209Z,81.00
2018-06-17T05:23:30.447Z,79.64
2018-06-17T05:25:58.668Z,80.49
2018-06-17T05:28:26.937Z,80.46
2018-06-17T05:30:55.119Z,80.88
2018-06-17T05:33:23.335Z,80.50
2018-06-17T05:35:51.612Z,78.80
2018-06-17T05:38:19.820Z,80.02
2018-06-17T05:40:48.038Z,80.76
2018-06-17T05:43:16.280Z,80.31
2018-06-17T05:45:44.621Z,78.73
2018-06-17T05:48:12.957Z,79.15
2018-06-17T05:50:41.176Z,79.69
2018-06-17T05:53:09.370Z,79.52
2018-06-17T05:55:37.692Z,79.87
2018-06-17T05:58:05.866Z,80.40
2018-06-17T06:00:34.085Z,79.26
2018-06-17T06:03:02.374Z,78.75
2018-06-17T06:05:30.641Z,78.31
2018-06-17T06:07:58.924Z,77.49
2018-06-17T06:10:33.571Z,78.99
2018-06-17T06:13:02.587Z,77.99
2018-06-17T06:15:30.779Z,77.82
2018-06-17T06:17:59.770Z,78.56
2018-06-17T06:20:28.034Z,78.73
2018-06-17T06:22:56.592Z,76.66
2018-06-17T06:25:24.787Z,77.23
2018-06-17T06:27:53.013Z,77.63
2018-06-17T06:30:21.237Z,78.57
2018-06-17T06:32:50.135Z,76.87
2018-06-17T06:35:18.428Z,77.70
2018-06-17T06:37:46.650Z,75.86
2018-06-17T06:40:14.975Z,75.13
2018-06-17T06:42:43.194Z,77.02
2018-06-17T06:45:11.471Z,75.38
2018-06-17T06:47:39.897Z,74.74
2018-06-17T06:50:08.341Z,74.56
2018-06-17T06:52:36.565Z,75.08
2018-06-17T06:55:04.786Z,74.07
2018-06-17T06:57:33.077Z,73.00
2018-06-17T07:00:01.267Z,72.78
2018-06-17T07:02:40.842Z,72.76
2018-06-17T07:05:20.248Z,73.34
2018-06-17T07:07:59.888Z,73.08
2018-06-17T07:10:29.114Z,73.58
2018-06-17T07:12:57.308Z,73.23
2018-06-17T07:15:37.982Z,72.91
2018-06-17T07:18:17.688Z,74.10
2018-06-17T07:20:46.163Z,73.97
2018-06-17T07:23:14.736Z,73.94
2018-06-17T07:26:53.292Z,73.58
2018-06-17T07:29:34.062Z,72.23
2018-06-17T07:32:02.231Z,73.20
2018-06-17T07:34:30.578Z,70.81
2018-06-17T07:36:58.784Z,68.64
2018-06-17T07:41:35.108Z,68.97
2018-06-17T07:44:03.861Z,69.14
2018-06-17T07:46:32.730Z,70.06
2018-06-17T07:49:41.546Z,69.91
2018-06-17T07:52:22.138Z,69.64
2018-06-17T07:54:50.554Z,70.82
2018-06-17T07:57:21.680Z,70.39
2018-06-17T07:59:49.947Z,67.32
2018-06-17T08:02:19.324Z,67.39
2018-06-17T08:04:47.628Z,68.47
2018-06-17T08:07:15.803Z,68.19
2018-06-17T08:09:44.045Z,68.41
2018-06-17T08:12:12.820Z,69.97
2018-06-17T08:14:41.473Z,67.98
2018-06-17T08:17:09.689Z,65.56
2018-06-17T08:19:38.119Z,70.84
2018-06-17T08:22:06.324Z,68.50
2018-06-17T08:24:34.998Z,69.07
2018-06-17T08:27:03.190Z,66.41
2018-06-17T08:29:31.425Z,68.61
2018-06-17T08:31:59.623Z,66.27
2018-06-17T08:34:27.877Z,66.86
2018-06-17T08:36:56.416Z,68.26
2018-06-17T08:39:25.206Z,69.64
2018-06-17T08:41:53.518Z,66.81
2018-06-17T08:44:22.080Z,65.28
2018-06-17T08:46:50.753Z,63.95
2018-06-17T08:49:19.588Z,66.97
2018-06-17T08:51:47.902Z,66.06
2018-06-17T08:54:16.195Z,62.87
2018-06-17T08:56:44.542Z,64.43
2018-06-17T08:59:12.770Z,67.37
2018-06-17T09:01:41.127Z,63.17
2018-06-17T09:04:09.427Z,67.67
2018-06-17T09:06:37.706Z,62.69
2018-06-17T09:09:10.495Z,62.10
2018-06-17T09:11:38.903Z,62.80
2018-06-17T09:14:07.222Z,61.76
2018-06-17T09:16:35.412Z,61.34
2018-06-17T09:19:03.679Z,63.23
2018-06-17T09:21:31.915Z,62.41
2018-06-17T09:24:00.643Z,63.55
2018-06-17T09:26:28.860Z,63.38
2018-06-17T09:28:57.500Z,63.70
2018-06-17T09:31:25.821Z,63.26
2018-06-17T09:33:54.178Z,63.86
2018-06-17T09:36:22.408Z,63.21
2018-06-17T09:38:50.640Z,63.03
2018-06-17T09:41:18.877Z,59.76
2018-06-17T09:43:47.065Z,57.33
2018-06-17T09:46:15.305Z,60.88
2018-06-17T09:48:43.537Z,58.62
2018-06-17T09:51:11.756Z,58.88
2018-06-17T09:53:39.976Z,58.35
2018-06-17T09:56:08.262Z,62.98
2018-06-17T09:58:36.561Z,64.27
2018-06-17T10:01:04.815Z,63.30
2018-06-17T10:03:33.031Z,59.50
2018-06-17T10:06:01.241Z,60.46
2018-06-17T10:08:29.484Z,58.65
2018-06-17T10:11:02.728Z,58.27
2018-06-17T10:13:32.354Z,58.48
2018-06-17T10:16:00.695Z,57.62
2018-06-17T10:18:29.495Z,54.13
2018-06-17T10:20:57.777Z,54.49
2018-06-17T10:23:26.116Z,54.47
2018-06-17T10:25:55.139Z,52.30
2018-06-17T10:28:24.690Z,52.18
2018-06-17T10:30:53.776Z,52.79
2018-06-17T10:33:22.643Z,53.41
2018-06-17T10:35:51.140Z,52.63
2018-06-17T10:38:19.402Z,52.99
2018-06-17T10:40:47.620Z,53.01
2018-06-17T10:43:19.212Z,52.97
2018-06-17T10:45:47.444Z,50.69
2018-06-17T10:48:15.980Z,51.29
2018-06-17T10:50:44.284Z,48.75
2018-06-17T10:53:12.562Z,46.11
2018-06-17T10:55:40.897Z,45.81
2018-06-17T10:58:09.089Z,46.31
2018-06-17T11:00:37.283Z,45.60
2018-06-17T11:03:05.577Z,46.30
2018-06-17T11:05:33.843Z,46.11
2018-06-17T11:08:02.039Z,45.55
2018-06-17T11:10:30.416Z,47.06
2018-06-17T11:12:58.670Z,45.92
2018-06-17T11:15:26.918Z,46.15
2018-06-17T11:17:55.152Z,47.44
2018-06-17T11:20:23.403Z,48.49
2018-06-17T11:22:51.571Z,46.59
2018-06-17T11:25:19.810Z,44.00
2018-06-17T11:27:48.046Z,42.99
2018-06-17T11:30:16.296Z,45.92
2018-06-17T11:32:44.581Z,45.44
2018-06-17T11:35:12.900Z,45.69
2018-06-17T11:37:41.130Z,47.13
2018-06-17T11:40:09.349Z,48.11
2018-06-17T11:42:37.578Z,47.38
2018-06-17T11:45:05.819Z,48.33
2018-06-17T11:47:34.028Z,47.73
2018-06-17T11:50:02.327Z,48.71
2018-06-17T11:52:30.536Z,47.80
2018-06-17T11:54:58.768Z,47.25
2018-06-17T11:57:27.078Z,48.42
2018-06-17T11:59:55.312Z,47.85
2018-06-17T12:02:23.541Z,47.29
2018-06-17T12:04:52.671Z,47.31
2018-06-17T12:07:21.026Z,47.72
2018-06-17T12:09:49.268Z,48.21
2018-06-17T12:12:17.486Z,47.26
2018-06-17T12:14:45.753Z,47.21
2018-06-17T12:17:13.945Z,47.15
2018-06-17T12:19:42.151Z,45.07
2018-06-17T12:22:10.429Z,44.72
2018-06-17T12:24:38.713Z,46.48
2018-06-17T12:27:07.082Z,44.98
2018-06-17T12:29:35.301Z,45.04
2018-06-17T12:32:03.540Z,46.31
2018-06-17T12:34:31.762Z,45.44
2018-06-17T12:37:00.495Z,45.60
2018-06-17T12:39:34.263Z,45.09
2018-06-17T12:42:02.595Z,46.50
2018-06-17T12:44:30.860Z,45.91
2018-06-17T12:46:59.102Z,45.06
2018-06-17T12:49:28.039Z,44.93
2018-06-17T12:51:56.349Z,44.06
2018-06-17T12:54:24.743Z,44.22
2018-06-17T12:56:52.992Z,43.79
2018-06-17T12:59:21.257Z,45.57
2018-06-17T13:01:49.546Z,44.93
2018-06-17T13:04:17.902Z,45.18
2018-06-17T13:06:46.170Z,45.75
2018-06-17T13:09:14.486Z,45.14
2018-06-17T13:11:42.703Z,43.91
2018-06-17T13:14:10.942Z,44.44
2018-06-17T13:16:39.195Z,44.94
2018-06-17T13:19:07.934Z,45.91
2018-06-17T13:21:36.201Z,45.24
2018-06-17T13:24:04.642Z,45.34
2018-06-17T13:26:32.921Z,45.42
2018-06-17T13:29:01.139Z,45.38
2018-06-17T13:31:29.437Z,45.55
2018-06-17T13:33:57.649Z,45.07
2018-06-17T13:36:25.913Z,45.17
2018-06-17T13:38:54.130Z,44.72
2018-06-17T13:41:22.350Z,45.17
2018-06-17T13:43:50.543Z,45.37
2018-06-17T13:46:18.761Z,43.46
2018-06-17T13:48:46.936Z,46.82
2018-06-17T13:51:15.192Z,44.33
2018-06-17T13:53:43.404Z,45.81
2018-06-17T13:56:11.632Z,46.19
2018-06-17T13:58:39.868Z,44.12
2018-06-17T14:01:08.118Z,44.42
2018-06-17T14:03:36.343Z,43.85
2018-06-17T14:06:04.640Z,42.53
2018-06-17T14:08:32.858Z,42.28
2018-06-17T14:11:01.127Z,44.74
2018-06-17T14:13:29.396Z,44.11
2018-06-17T14:15:57.580Z,45.36
2018-06-17T14:18:25.814Z,45.27
2018-06-17T14:20:54.062Z,44.50
2018-06-17T14:23:22.459Z,46.20
2018-06-17T14:25:50.811Z,45.54
2018-06-17T14:28:19.014Z,46.36
2018-06-17T14:30:47.260Z,45.74
2018-06-17T14:33:15.473Z,45.33
2018-06-17T14:35:43.749Z,45.57
2018-06-17T14:38:11.970Z,45.23
2018-06-17T14:40:45.440Z,46.77
2018-06-17T14:43:18.973Z,45.56
2018-06-17T14:45:52.640Z,46.09
2018-06-17T14:48:26.112Z,45.83
2018-06-17T14:50:59.592Z,45.51
2018-06-17T14:53:27.858Z,45.42
2018-06-17T14:55:56.037Z,47.17
2018-06-17T14:58:24.260Z,46.93
2018-06-17T15:00:52.461Z,46.16
2018-06-17T15:03:20.703Z,46.09
2018-06-17T15:05:48.997Z,47.28
2018-06-17T15:08:17.204Z,46.39
2018-06-17T15:10:45.460Z,46.42
2018-06-17T15:13:13.700Z,46.11
2018-06-17T15:15:42.761Z,45.31
2018-06-17T15:18:11.007Z,47.05
2018-06-17T15:20:39.273Z,46.45
2018-06-17T15:23:07.604Z,46.04
2018-06-17T15:25:35.903Z,46.51
2018-06-17T15:28:04.154Z,46.78
2018-06-17T15:30:32.399Z,45.90
2018-06-17T15:33:05.869Z,45.94
2018-06-17T15:35:39.611Z,44.72
2018-06-17T15:38:13.106Z,44.59
2018-06-17T15:40:46.865Z,45.48
2018-06-17T15:43:15.062Z,44.61
2018-06-17T15:45:43.329Z,45.05
2018-06-17T15:48:11.559Z,45.33
2018-06-17T15:50:39.843Z,45.91
2018-06-17T15:53:08.054Z,45.51
2018-06-17T15:55:36.301Z,46.10
2018-06-17T15:58:04.590Z,46.06
2018-06-17T16:00:32.910Z,46.03
2018-06-17T16:03:01.414Z,46.13
2018-06-17T16:05:29.673Z,45.83
2018-06-17T16:07:58.005Z,44.82
2018-06-17T16:10:26.231Z,45.65
2018-06-17T16:12:59.840Z,45.11
2018-06-17T16:15:33.268Z,45.50
2018-06-17T16:18:07.403Z,44.75
2018-06-17T16:20:40.971Z,45.49
2018-06-17T16:23:09.711Z,46.07
2018-06-17T16:25:37.963Z,44.80
2018-06-17T16:28:06.464Z,43.87
2018-06-17T16:30:34.752Z,44.38
2018-06-17T16:33:03.020Z,44.49
2018-06-17T16:35:31.439Z,44.84
2018-06-17T16:37:59.786Z,45.18
2018-06-17T16:40:28.111Z,43.99
2018-06-17T16:42:56.376Z,44.71
2018-06-17T16:45:24.623Z,44.49
2018-06-17T16:47:52.881Z,44.68
2018-06-17T16:50:21.102Z,44.30
2018-06-17T16:52:54.715Z,44.78
2018-06-17T16:55:28.408Z,44.50
2018-06-17T16:58:01.976Z,45.43
2018-06-17T17:00:30.218Z,44.68
2018-06-17T17:02:58.469Z,45.55
2018-06-17T17:05:26.691Z,45.45
2018-06-17T17:07:54.919Z,45.52
2018-06-17T17:10:23.165Z,45.63
2018-06-17T17:12:51.722Z,45.88
2018-06-17T17:15:19.997Z,46.44
2018-06-17T17:17:48.297Z,45.75
2018-06-17T17:20:16.591Z,50.69
2018-06-17T17:22:44.891Z,52.98
2018-06-17T17:25:13.121Z,55.35
2018-06-17T17:27:41.356Z,54.40
2018-06-17T17:30:09.645Z,54.85
2018-06-17T17:32:43.092Z,54.15
2018-06-17T17:35:16.766Z,55.28
2018-06-17T17:37:50.270Z,55.34
2018-06-17T17:40:23.864Z,54.85
2018-06-17T17:42:52.157Z,55.03
2018-06-17T17:45:22.373Z,56.44
2018-06-17T17:47:50.694Z,56.95
2018-06-17T17:50:18.936Z,57.21
2018-06-17T17:52:47.219Z,57.40
2018-06-17T17:55:15.397Z,57.87
2018-06-17T17:57:43.718Z,56.57
2018-06-17T18:00:11.988Z,57.00
2018-06-17T18:02:40.275Z,56.55
2018-06-17T18:05:08.543Z,56.96
2018-06-17T18:07:36.803Z,58.16
2018-06-17T18:10:05.039Z,56.97
2018-06-17T18:12:33.283Z,56.82
2018-06-17T18:15:01.600Z,56.00
2018-06-17T18:17:29.844Z,56.51
2018-06-17T18:19:58.049Z,56.35
2018-06-17T18:22:26.284Z,55.88
2018-06-17T18:25:00.070Z,55.08
2018-06-17T18:27:33.720Z,55.84
2018-06-17T18:30:07.205Z,56.03
2018-06-17T18:32:40.613Z,55.49
2018-06-17T18:35:14.136Z,56.43
2018-06-17T18:37:42.511Z,56.62
2018-06-17T18:40:10.795Z,54.85
2018-06-17T18:42:39.044Z,55.71
2018-06-17T18:45:07.263Z,56.36
2018-06-17T18:47:35.504Z,56.53
2018-06-17T18:50:03.794Z,56.72
2018-06-17T18:52:32.011Z,56.30
2018-06-17T18:55:00.260Z,56.47
2018-06-17T18:57:28.886Z,56.72
2018-06-17T18:59:57.161Z,56.50
2018-06-17T19:02:25.369Z,56.05
2018-06-17T19:04:53.660Z,56.09
2018-06-17T19:07:21.987Z,55.57
2018-06-17T19:09:55.584Z,54.93
2018-06-17T19:12:29.194Z,55.33
2018-06-17T19:15:03.244Z,55.59
2018-06-17T19:17:37.463Z,55.88
2018-06-17T19:20:05.769Z,55.70
2018-06-17T19:22:34.088Z,56.35
2018-06-17T19:25:02.293Z,56.12
2018-06-17T19:27:30.525Z,55.82
2018-06-17T19:29:58.793Z,55.99
2018-06-17T19:32:27.097Z,57.79
2018-06-17T19:34:55.364Z,55.55
2018-06-17T19:37:23.794Z,56.15
2018-06-17T19:39:52.157Z,56.08
2018-06-17T19:42:20.359Z,55.06
2018-06-17T19:44:48.616Z,56.14
2018-06-17T19:47:16.838Z,56.08
2018-06-17T19:49:50.319Z,56.22
2018-06-17T19:53:24.552Z,56.15
2018-06-17T19:55:58.042Z,57.08
2018-06-17T19:58:31.751Z,55.43
2018-06-17T20:01:01.720Z,55.66
2018-06-17T20:03:29.998Z,55.65
2018-06-17T20:05:58.908Z,56.88
2018-06-17T20:08:27.211Z,56.56
2018-06-17T20:10:55.453Z,56.03
2018-06-17T20:13:23.747Z,56.14
2018-06-17T20:15:51.983Z,55.93
2018-06-17T20:18:20.382Z,56.36
2018-06-17T20:20:48.742Z,56.07
2018-06-17T20:23:17.044Z,55.75
2018-06-17T20:25:45.353Z,57.13
2018-06-17T20:28:13.633Z,56.26
2018-06-17T20:30:41.922Z,58.29
2018-06-17T20:33:15.465Z,56.40
2018-06-17T20:35:49.065Z,56.82
2018-06-17T20:38:22.552Z,58.33
2018-06-17T20:40:56.163Z,57.92
2018-06-17T20:43:29.937Z,58.02
2018-06-17T20:45:58.754Z,59.64
2018-06-17T20:48:27.097Z,60.72
2018-06-17T20:50:55.496Z,60.82
2018-06-17T20:53:23.720Z,61.92
2018-06-17T20:55:52.122Z,64.05
2018-06-17T20:58:20.538Z,64.21
2018-06-17T21:00:48.799Z,63.73
2018-06-17T21:03:17.139Z,65.07
2018-06-17T21:05:45.411Z,64.16
2018-06-17T21:08:13.899Z,63.77
2018-06-17T21:10:42.152Z,63.40
2018-06-17T21:13:10.432Z,64.89
2018-06-17T21:15:38.703Z,64.49
2018-06-17T21:18:07.018Z,63.99
2018-06-17T21:20:40.634Z,64.37
2018-06-17T21:23:14.186Z,65.48
2018-06-17T21:25:47.694Z,65.15
2018-06-17T21:28:15.995Z,64.69
2018-06-17T21:30:44.253Z,66.10
2018-06-17T21:33:12.524Z,67.31
2018-06-17T21:35:40.816Z,65.76
2018-06-17T21:38:09.061Z,67.38
2018-06-17T21:40:37.357Z,68.09
2018-06-17T21:43:05.651Z,67.19
2018-06-17T21:45:33.919Z,68.00
2018-06-17T21:48:02.212Z,68.20
2018-06-17T21:50:31.222Z,67.32
2018-06-17T21:52:59.492Z,67.14
2018-06-17T21:55:27.763Z,67.52
2018-06-17T21:57:56.096Z,67.44
2018-06-17T22:00:25.022Z,66.93
2018-06-17T22:02:53.311Z,67.18
2018-06-17T22:05:21.674Z,68.28
2018-06-17T22:07:55.311Z,67.24
2018-06-17T22:10:28.877Z,67.84
2018-06-17T22:12:59.094Z,67.73
2018-06-17T22:15:32.722Z,67.12
2018-06-17T22:18:01.216Z,66.60
2018-06-17T22:20:29.452Z,68.99
2018-06-17T22:22:57.765Z,69.58
2018-06-17T22:25:27.793Z,69.61
2018-06-17T22:28:02.834Z,69.43
2018-06-17T22:30:34.748Z,69.69
2018-06-17T22:33:07.954Z,69.34
2018-06-17T22:35:39.348Z,68.98
2018-06-17T22:38:07.653Z,69.39
2018-06-17T22:40:35.956Z,70.02
2018-06-17T22:43:04.299Z,70.12
2018-06-17T22:45:32.657Z,69.09
2018-06-17T22:48:00.940Z,69.32
2018-06-17T22:50:29.177Z,70.35
2018-06-17T22:53:08.541Z,70.64
2018-06-17T22:55:36.790Z,70.39
2018-06-17T23:06:04.199Z,71.13
2018-06-17T23:08:37.771Z,70.82
2018-06-17T23:11:06.164Z,71.61
2018-06-17T23:17:54.856Z,70.55
2018-06-17T23:20:23.098Z,70.78
2018-06-17T23:22:51.359Z,71.71
2018-06-17T23:25:33.881Z,71.36
2018-06-17T23:37:43.776Z,69.90
2018-06-17T23:40:12.094Z,70.32
2018-06-17T23:42:40.399Z,69.58
2018-06-17T23:45:22.147Z,70.32
2018-06-17T23:50:41.052Z,69.61
2018-06-17T23:53:14.534Z,69.12
2018-06-17T23:55:50.140Z,68.22
2018-06-17T23:58:30.258Z,66.81
